Time;durP1;ratioP1;P1;durP2;ratioP2;P2;SDS_P1;SDS_P2;PMS_P1;PMS_P2;Temp;Humidity;BMP_temperature;BMP_pressure;BME280_temperature;BME280_humidity;BME280_pressure;Samples;Min_cycle;Max_cycle;Signal;HPM_P1;HPM_P2
2023/08/22 00:00:12;;;;;;;16.42;15.02;;;;;;;26.09;47.01;95414.69;6057049;28;109746;-59
2023/08/22 00:03:17;;;;;;;15.85;14.45;;;;;;;26.17;46.54;95419.22;6064327;28;109803;-60
2023/08/22 00:06:21;;;;;;;13.00;12.00;;;;;;;26.20;45.91;95430.09;6065012;28;110314;-59
2023/08/22 00:09:25;;;;;;;12.27;11.27;;;;;;;26.28;46.42;95423.91;6059400;28;109787;-59
2023/08/22 00:12:29;;;;;;;12.20;11.30;;;;;;;26.30;46.62;95422.81;6055936;28;110362;-60
2023/08/22 00:15:32;;;;;;;12.00;11.10;;;;;;;26.31;46.12;95425.16;6040568;28;110268;-59
2023/08/22 00:18:35;;;;;;;13.30;12.20;;;;;;;26.36;46.19;95424.19;6046257;28;109993;-59
2023/08/22 00:21:38;;;;;;;13.90;12.77;;;;;;;26.37;45.84;95423.06;6052721;28;110086;-59
2023/08/22 00:24:43;;;;;;;12.40;11.50;;;;;;;26.38;45.82;95421.97;6054804;28;110956;-60
2023/08/22 00:27:46;;;;;;;13.93;12.82;;;;;;;26.31;46.26;95424.38;6074874;28;110029;-57
2023/08/22 00:30:49;;;;;;;12.90;11.90;;;;;;;26.32;46.19;95417.91;6062610;28;109971;-58
2023/08/22 00:33:52;;;;;;;11.63;10.63;;;;;;;26.10;46.89;95416.28;6054357;28;112288;-59
2023/08/22 00:36:55;;;;;;;14.23;13.13;;;;;;;26.21;46.61;95414.78;6065013;28;110842;-59
2023/08/22 00:40:00;;;;;;;13.00;12.00;;;;;;;26.30;46.87;95414.75;6063488;28;110116;-58
2023/08/22 00:43:03;;;;;;;12.45;11.45;;;;;;;26.38;46.26;95408.53;6054038;28;111416;-58
2023/08/22 00:46:06;;;;;;;14.00;12.80;;;;;;;26.21;46.79;95409.41;6062152;28;109913;-59
2023/08/22 00:49:10;;;;;;;12.13;11.23;;;;;;;26.28;46.44;95407.03;6053498;28;110343;-59
2023/08/22 00:52:14;;;;;;;12.95;11.95;;;;;;;26.35;46.23;95419.94;6047177;28;110464;-59
2023/08/22 00:55:19;;;;;;;12.20;11.30;;;;;;;26.35;46.29;95415.34;6053042;28;109830;-59
2023/08/22 00:58:23;;;;;;;13.10;12.10;;;;;;;26.39;45.83;95418.19;6063006;28;110982;-59
2023/08/22 01:01:27;;;;;;;13.30;12.40;;;;;;;26.41;46.37;95415.97;6052431;28;109694;-58
2023/08/22 01:04:30;;;;;;;15.10;14.00;;;;;;;26.38;46.59;95412.03;6064301;28;111250;-61
2023/08/22 01:07:42;;;;;;;12.03;11.23;;;;;;;26.25;46.83;95416.53;6046407;28;109919;-61
2023/08/22 01:10:53;;;;;;;12.70;11.70;;;;;;;26.26;46.62;95418.09;6065858;28;109820;-60
2023/08/22 01:13:57;;;;;;;12.10;11.20;;;;;;;26.28;46.53;95413.19;6080266;28;109953;-60
2023/08/22 01:17:01;;;;;;;12.80;11.70;;;;;;;26.37;45.88;95418.50;6079269;28;109969;-58
2023/08/22 01:20:07;;;;;;;12.88;11.93;;;;;;;26.41;46.40;95411.38;6067122;28;111388;-60
2023/08/22 01:23:12;;;;;;;12.95;11.85;;;;;;;26.42;46.58;95412.19;6053928;28;109902;-60
2023/08/22 01:26:15;;;;;;;12.50;11.60;;;;;;;26.40;46.35;95411.72;6041181;28;109847;-58
2023/08/22 01:29:30;;;;;;;11.95;11.05;;;;;;;26.34;46.31;95410.31;6039096;28;110062;-60
2023/08/22 01:32:39;;;;;;;12.43;11.52;;;;;;;26.36;46.55;95416.91;6063193;28;109762;-60
2023/08/22 01:35:47;;;;;;;12.30;11.40;;;;;;;26.38;46.25;95416.59;6063579;28;109838;-61
2023/08/22 01:38:54;;;;;;;12.32;11.43;;;;;;;26.37;46.85;95412.34;6062955;28;109919;-61
2023/08/22 01:41:59;;;;;;;12.68;11.77;;;;;;;26.37;46.61;95418.50;6049635;28;109862;-60
2023/08/22 01:45:02;;;;;;;13.30;12.30;;;;;;;26.40;46.38;95417.09;6055829;28;112027;-60
2023/08/22 01:48:06;;;;;;;13.15;12.07;;;;;;;26.37;46.32;95412.34;6086347;28;109824;-61
2023/08/22 01:51:09;;;;;;;12.30;11.40;;;;;;;26.35;46.47;95407.31;6060125;28;109308;-61
2023/08/22 01:54:14;;;;;;;14.10;13.00;;;;;;;26.35;46.58;95414.56;6063287;28;110235;-61
2023/08/22 01:57:17;;;;;;;13.65;12.65;;;;;;;26.37;46.37;95421.19;6062730;28;110194;-62
2023/08/22 02:00:21;;;;;;;12.30;11.30;;;;;;;26.34;46.86;95419.16;6044876;28;109958;-61
2023/08/22 02:03:25;;;;;;;12.52;11.52;;;;;;;26.35;46.33;95418.03;6043966;28;109995;-60
2023/08/22 02:06:28;;;;;;;12.23;11.32;;;;;;;26.32;46.26;95416.00;6079324;28;109733;-61
2023/08/22 02:09:32;;;;;;;12.32;11.43;;;;;;;26.30;46.80;95417.44;6071693;28;109892;-61
2023/08/22 02:12:35;;;;;;;12.75;11.65;;;;;;;26.27;46.91;95414.28;6062709;28;109829;-56
2023/08/22 02:15:38;;;;;;;12.65;11.75;;;;;;;26.31;46.89;95413.66;6051801;28;109773;-56
2023/08/22 02:18:42;;;;;;;14.40;13.40;;;;;;;26.34;46.54;95413.78;6061397;28;109600;-55
2023/08/22 02:21:45;;;;;;;12.87;11.77;;;;;;;26.34;46.84;95407.63;6050935;28;110619;-55
2023/08/22 02:24:49;;;;;;;11.90;11.00;;;;;;;26.33;46.94;95416.78;6068639;28;109704;-55
2023/08/22 02:27:53;;;;;;;12.23;11.40;;;;;;;26.31;47.00;95409.06;6049481;28;110058;-55
2023/08/22 02:30:56;;;;;;;12.90;11.80;;;;;;;26.31;46.43;95424.38;6042760;28;110893;-56
2023/08/22 02:33:59;;;;;;;13.10;12.10;;;;;;;26.19;47.44;95415.09;6054603;28;110066;-55
2023/08/22 02:37:02;;;;;;;12.70;11.70;;;;;;;26.17;47.33;95408.50;6054490;28;109803;-55
2023/08/22 02:40:09;;;;;;;12.00;11.10;;;;;;;26.23;47.10;95413.38;6066083;28;109766;-55
2023/08/22 02:43:12;;;;;;;11.73;10.90;;;;;;;26.30;47.06;95423.59;6064823;28;111068;-56
2023/08/22 02:46:15;;;;;;;12.05;11.15;;;;;;;26.32;46.41;95416.00;6078626;28;109747;-55
2023/08/22 02:49:18;;;;;;;11.68;10.88;;;;;;;26.34;46.44;95421.03;6078798;28;110152;-55
2023/08/22 02:52:21;;;;;;;11.82;10.82;;;;;;;26.33;46.18;95425.63;6079064;28;109749;-55
2023/08/22 02:55:26;;;;;;;11.45;10.63;;;;;;;26.36;46.08;95427.66;6075464;28;111027;-55
2023/08/22 02:58:30;;;;;;;11.50;10.70;;;;;;;26.34;46.77;95426.41;6065408;28;110250;-56
2023/08/22 03:01:33;;;;;;;12.68;11.68;;;;;;;26.33;46.33;95431.00;6053841;28;110102;-55
2023/08/22 03:04:37;;;;;;;11.70;10.90;;;;;;;26.28;47.15;95426.59;6065007;28;110283;-55
2023/08/22 03:07:40;;;;;;;11.93;11.05;;;;;;;26.28;46.94;95426.59;6049150;28;110052;-56
2023/08/22 03:10:45;;;;;;;12.33;11.33;;;;;;;26.32;46.55;95428.63;6042439;28;110972;-56
2023/08/22 03:13:48;;;;;;;11.00;10.20;;;;;;;26.37;46.32;95436.50;6047484;28;110012;-56
2023/08/22 03:16:52;;;;;;;11.38;10.57;;;;;;;26.42;46.44;95434.44;6042257;28;109553;-55
2023/08/22 03:19:55;;;;;;;11.93;11.03;;;;;;;26.47;46.33;95438.81;6058236;28;109693;-55
2023/08/22 03:22:59;;;;;;;12.23;11.13;;;;;;;26.49;46.33;95442.75;6054969;28;111000;-55
2023/08/22 03:26:06;;;;;;;13.65;12.15;;;;;;;26.53;46.60;95440.97;6052118;28;109977;-54
2023/08/22 03:29:10;;;;;;;14.00;12.00;;;;;;;26.55;47.62;95444.16;6055078;28;110098;-56
2023/08/22 03:32:13;;;;;;;14.87;13.47;;;;;;;26.53;47.31;95440.19;6063080;28;109811;-56
2023/08/22 03:35:16;;;;;;;13.95;12.73;;;;;;;26.57;47.53;95441.13;6032521;28;110667;-55
2023/08/22 03:38:19;;;;;;;14.88;13.60;;;;;;;26.57;47.79;95439.25;6064937;28;109781;-55
2023/08/22 03:41:23;;;;;;;14.90;13.60;;;;;;;26.57;48.24;95441.94;6064808;28;110081;-55
2023/08/22 03:44:27;;;;;;;14.10;12.80;;;;;;;26.57;48.43;95439.25;6061753;28;110031;-57
2023/08/22 03:47:30;;;;;;;14.27;13.07;;;;;;;26.58;47.80;95442.72;6049588;28;109573;-56
2023/08/22 03:50:33;;;;;;;13.75;12.65;;;;;;;26.56;48.00;95437.69;6074931;28;110075;-56
2023/08/22 03:53:37;;;;;;;13.43;12.13;;;;;;;26.47;47.19;95438.81;6057441;28;109927;-55
2023/08/22 03:56:42;;;;;;;14.40;13.20;;;;;;;26.45;47.23;95446.41;6053903;28;110500;-56
2023/08/22 03:59:45;;;;;;;14.05;12.95;;;;;;;26.40;46.57;95449.28;6046104;28;109868;-56
2023/08/22 04:02:48;;;;;;;14.98;13.38;;;;;;;26.36;47.51;95451.03;6059299;28;109756;-55
2023/08/22 04:05:51;;;;;;;13.80;12.60;;;;;;;26.40;47.72;95449.28;6060460;28;111126;-55
2023/08/22 04:08:54;;;;;;;13.60;12.20;;;;;;;26.37;47.97;95449.91;6046397;28;109936;-55
2023/08/22 04:12:00;;;;;;;14.20;12.80;;;;;;;26.24;47.94;95449.81;6063120;28;110393;-56
2023/08/22 04:15:03;;;;;;;14.63;13.43;;;;;;;26.34;47.04;95453.25;6060586;28;110937;-55
2023/08/22 04:18:07;;;;;;;14.43;13.15;;;;;;;26.41;47.21;95450.84;6059638;28;110131;-54
2023/08/22 04:21:10;;;;;;;13.38;11.98;;;;;;;26.17;47.27;95457.56;6054077;28;110035;-54
2023/08/22 04:24:13;;;;;;;13.10;12.02;;;;;;;25.77;48.30;95451.69;6050023;28;109881;-63
2023/08/22 04:27:18;;;;;;;12.45;11.35;;;;;;;25.56;48.41;95458.81;6065053;28;109722;-64
2023/08/22 04:30:22;;;;;;;13.50;12.30;;;;;;;25.32;49.11;95464.63;6053848;28;109727;-64
2023/08/22 04:33:25;;;;;;;13.82;12.63;;;;;;;24.35;52.01;95466.66;6064637;28;110222;-63
2023/08/22 04:36:28;;;;;;;13.93;12.53;;;;;;;24.69;51.04;95464.09;6064623;28;109962;-63
2023/08/22 04:39:31;;;;;;;14.00;12.90;;;;;;;24.39;52.44;95468.41;6064553;28;110273;-64
2023/08/22 04:42:35;;;;;;;14.90;13.60;;;;;;;24.64;51.59;95471.47;6054305;28;110702;-64
2023/08/22 04:45:38;;;;;;;14.20;12.90;;;;;;;24.90;50.79;95475.03;6064502;28;110793;-64
2023/08/22 04:48:41;;;;;;;14.80;13.60;;;;;;;25.12;50.10;95478.66;6064123;28;109919;-63
2023/08/22 04:51:45;;;;;;;13.77;12.68;;;;;;;25.47;49.36;95482.16;6063579;28;109740;-64
2023/08/22 04:54:48;;;;;;;23.77;21.88;;;;;;;25.71;48.71;95481.66;6053773;28;109922;-64
2023/08/22 04:57:53;;;;;;;38.90;35.78;;;;;;;25.74;48.93;95473.78;6064354;28;111090;-64
2023/08/22 05:00:57;;;;;;;19.63;18.02;;;;;;;25.80;48.53;95479.75;6063278;28;109806;-64
2023/08/22 05:04:00;;;;;;;16.30;15.00;;;;;;;25.84;48.79;95470.75;6058363;28;109921;-64
2023/08/22 05:07:03;;;;;;;15.13;13.97;;;;;;;25.89;48.61;95473.28;6059003;28;110273;-65
2023/08/22 05:10:06;;;;;;;16.07;14.70;;;;;;;25.82;48.32;95483.69;6063874;28;110255;-64
2023/08/22 05:13:11;;;;;;;14.05;12.85;;;;;;;25.71;48.56;95482.47;6064224;28;110052;-64
2023/08/22 05:16:14;;;;;;;15.05;13.80;;;;;;;25.68;48.51;95477.72;6053684;28;110026;-63
2023/08/22 05:19:18;;;;;;;14.77;13.50;;;;;;;25.00;50.53;95482.75;6064078;28;109892;-63
2023/08/22 05:22:21;;;;;;;16.02;14.73;;;;;;;24.76;51.39;95490.44;6063088;28;109960;-63
2023/08/22 05:25:24;;;;;;;17.10;15.70;;;;;;;24.75;51.86;95492.31;6063901;28;110106;-62
2023/08/22 05:28:28;;;;;;;17.50;15.90;;;;;;;24.47;53.64;95488.25;6053318;28;109628;-63
2023/08/22 05:31:32;;;;;;;16.83;15.33;;;;;;;24.66;52.76;95485.31;6051951;28;111232;-64
2023/08/22 05:34:36;;;;;;;19.00;15.90;;;;;;;24.92;51.84;95485.41;6038664;28;109052;-64
2023/08/22 05:37:39;;;;;;;16.80;15.30;;;;;;;25.13;51.20;95489.06;6037033;28;109829;-65
2023/08/22 05:40:43;;;;;;;18.10;16.33;;;;;;;25.37;50.54;95486.75;6039223;28;109937;-63
2023/08/22 05:43:47;;;;;;;18.10;16.17;;;;;;;25.48;50.67;95495.22;6063688;28;110269;-70
2023/08/22 05:46:50;;;;;;;16.25;14.85;;;;;;;25.45;50.32;95490.50;6064205;28;110919;-68
2023/08/22 05:49:54;;;;;;;16.42;15.13;;;;;;;25.66;50.07;95485.28;6053508;28;109913;-69
2023/08/22 05:52:57;;;;;;;16.58;15.02;;;;;;;25.78;49.75;95487.31;6063313;28;109956;-69
2023/08/22 05:56:00;;;;;;;16.85;15.50;;;;;;;25.76;50.33;95484.97;6064213;28;109947;-68
2023/08/22 05:59:04;;;;;;;16.15;14.80;;;;;;;25.77;50.27;95480.38;6064013;28;109978;-70
2023/08/22 06:02:07;;;;;;;15.77;14.37;;;;;;;25.86;49.74;95484.63;6052346;28;110076;-70
2023/08/22 06:05:10;;;;;;;16.03;14.70;;;;;;;26.05;49.42;95484.31;6063669;28;110162;-69
2023/08/22 06:08:14;;;;;;;18.03;16.23;;;;;;;26.05;49.23;95478.94;6063712;28;109909;-69
2023/08/22 06:11:17;;;;;;;16.80;15.40;;;;;;;25.75;50.37;95474.56;6065123;28;109795;-69
2023/08/22 06:14:21;;;;;;;15.90;14.50;;;;;;;25.99;49.41;95466.75;6058767;28;110197;-68
2023/08/22 06:17:24;;;;;;;18.45;16.85;;;;;;;26.15;49.07;95467.84;6067790;28;109808;-67
2023/08/22 06:20:27;;;;;;;15.00;13.70;;;;;;;26.25;49.28;95469.41;6067785;28;109912;-69
2023/08/22 06:23:30;;;;;;;15.90;14.40;;;;;;;26.32;48.80;95469.66;6061898;28;109809;-68
2023/08/22 06:26:33;;;;;;;14.10;13.00;;;;;;;26.50;48.38;95465.00;6062839;28;109806;-68
2023/08/22 06:29:38;;;;;;;14.35;13.05;;;;;;;26.62;48.12;95461.63;6068763;28;109676;-69
2023/08/22 06:32:41;;;;;;;13.95;12.85;;;;;;;26.68;48.17;95466.50;6067562;28;109946;-69
2023/08/22 06:35:47;;;;;;;14.50;13.30;;;;;;;26.74;48.35;95470.59;6057027;28;112712;-69
2023/08/22 06:38:50;;;;;;;13.63;12.43;;;;;;;26.80;48.01;95471.97;6067961;28;112472;-69
2023/08/22 06:41:53;;;;;;;13.23;12.13;;;;;;;26.89;48.04;95471.94;6067506;28;109898;-67
2023/08/22 06:44:58;;;;;;;14.60;13.27;;;;;;;26.93;47.21;95478.22;6067560;28;110921;-69
2023/08/22 06:48:01;;;;;;;14.43;13.25;;;;;;;26.76;47.53;95479.13;6056403;28;109967;-67
2023/08/22 06:51:04;;;;;;;13.50;12.35;;;;;;;26.51;48.28;95471.94;6067007;28;110078;-68
2023/08/22 06:54:07;;;;;;;14.20;13.10;;;;;;;26.56;47.87;95475.25;6066621;28;109989;-70
2023/08/22 06:57:10;;;;;;;13.35;12.40;;;;;;;26.50;48.32;95471.16;6065089;28;109826;-67
2023/08/22 07:00:16;;;;;;;13.80;12.60;;;;;;;26.67;48.08;95470.31;6059384;28;112698;-68
2023/08/22 07:03:20;;;;;;;13.33;12.30;;;;;;;26.82;47.97;95466.28;6067310;28;111179;-70
2023/08/22 07:06:23;;;;;;;12.70;11.60;;;;;;;27.11;47.36;95466.25;6067276;28;109815;-70
2023/08/22 07:09:26;;;;;;;14.00;12.90;;;;;;;27.16;46.64;95465.25;6057290;28;110384;-70
2023/08/22 07:12:29;;;;;;;13.83;12.73;;;;;;;27.11;47.21;95463.56;6067434;28;113203;-71
2023/08/22 07:15:34;;;;;;;13.93;12.87;;;;;;;27.03;47.31;95463.59;6067547;28;110911;-69
2023/08/22 07:18:38;;;;;;;13.63;12.60;;;;;;;26.83;47.61;95463.25;6066819;28;109739;-70
2023/08/22 07:21:41;;;;;;;13.82;12.82;;;;;;;26.70;47.93;95461.59;6056163;28;109973;-71
2023/08/22 07:24:44;;;;;;;15.30;13.47;;;;;;;26.75;48.33;95458.75;6065638;28;110987;-68
2023/08/22 07:27:47;;;;;;;14.90;13.57;;;;;;;26.84;47.50;95451.41;6066903;28;110103;-69
2023/08/22 07:30:53;;;;;;;14.80;13.50;;;;;;;26.95;47.19;95454.50;6066900;28;111288;-70
2023/08/22 07:33:56;;;;;;;15.15;13.90;;;;;;;26.99;47.68;95450.03;6055980;28;109727;-70
2023/08/22 07:36:59;;;;;;;14.32;13.13;;;;;;;27.07;47.16;95448.44;6066659;28;109969;-69
2023/08/22 07:40:04;;;;;;;14.23;12.93;;;;;;;27.08;46.87;95450.78;6066759;28;110990;-69
2023/08/22 07:43:08;;;;;;;13.93;12.73;;;;;;;27.22;46.38;95450.53;6061615;28;109997;-69
2023/08/22 07:46:12;;;;;;;14.80;13.50;;;;;;;27.30;46.44;95454.28;6060705;28;109827;-69
2023/08/22 07:49:15;;;;;;;14.40;13.30;;;;;;;27.24;47.15;95447.50;6066419;28;111380;-68
2023/08/22 07:52:18;;;;;;;14.27;13.00;;;;;;;27.26;46.86;95448.00;6066457;28;109953;-70
2023/08/22 07:55:23;;;;;;;14.95;13.45;;;;;;;27.20;46.45;95441.97;6054464;28;110838;-69
2023/08/22 07:58:26;;;;;;;15.00;13.70;;;;;;;27.18;46.73;95436.16;6066260;28;109918;-70
2023/08/22 08:01:32;;;;;;;16.17;14.70;;;;;;;27.17;47.28;95445.31;6065665;28;110764;-71
2023/08/22 08:04:35;;;;;;;15.07;13.77;;;;;;;27.30;46.62;95444.31;6065522;28;110347;-63
2023/08/22 08:07:39;;;;;;;13.70;12.60;;;;;;;27.62;46.64;95448.13;6054575;28;109711;-63
2023/08/22 08:10:42;;;;;;;14.40;13.10;;;;;;;27.61;45.89;95437.69;6064980;28;109982;-63
2023/08/22 08:13:45;;;;;;;14.10;12.90;;;;;;;28.01;45.96;95446.78;6065124;28;110186;-63
2023/08/22 08:16:50;;;;;;;13.60;12.40;;;;;;;28.16;45.82;95442.66;6060966;28;109919;-68
2023/08/22 08:19:53;;;;;;;14.25;12.85;;;;;;;28.18;45.73;95442.31;6059911;28;110741;-63
2023/08/22 08:22:56;;;;;;;14.23;12.75;;;;;;;27.93;45.51;95436.13;6065065;28;111009;-63
2023/08/22 08:25:59;;;;;;;14.48;13.07;;;;;;;27.89;46.11;95437.91;6064075;28;110130;-64
2023/08/22 08:29:02;;;;;;;15.50;14.10;;;;;;;27.69;46.33;95434.13;6054770;28;109961;-64
2023/08/22 08:32:07;;;;;;;14.50;13.00;;;;;;;27.50;46.22;95437.31;6064386;28;110212;-63
2023/08/22 08:35:10;;;;;;;13.93;12.63;;;;;;;27.63;46.12;95432.78;6064112;28;109977;-63
2023/08/22 08:38:13;;;;;;;14.50;13.00;;;;;;;27.64;46.37;95432.44;6064650;28;109764;-63
2023/08/22 08:41:20;;;;;;;13.55;12.25;;;;;;;27.73;46.22;95443.91;6054841;28;109994;-63
2023/08/22 08:44:26;;;;;;;13.50;12.30;;;;;;;27.92;45.86;95437.25;6064378;28;110002;-64
2023/08/22 08:47:31;;;;;;;13.00;11.80;;;;;;;27.83;46.22;95434.63;6064353;28;109791;-63
2023/08/22 08:50:37;;;;;;;12.77;11.48;;;;;;;28.18;45.16;95431.56;6064298;28;109780;-63
2023/08/22 08:53:42;;;;;;;12.48;11.27;;;;;;;28.27;44.93;95433.03;6053626;28;109808;-64
2023/08/22 08:56:45;;;;;;;13.10;11.80;;;;;;;28.03;45.67;95427.63;6063404;28;110097;-65
2023/08/22 08:59:48;;;;;;;12.50;11.40;;;;;;;27.90;45.50;95423.34;6063640;28;109581;-63
2023/08/22 09:02:53;;;;;;;13.45;12.07;;;;;;;27.84;45.67;95417.34;6056591;28;110229;-67
2023/08/22 09:05:56;;;;;;;12.50;11.40;;;;;;;27.86;45.29;95420.53;6063591;28;109631;-64
2023/08/22 09:09:05;;;;;;;11.98;11.07;;;;;;;27.90;45.18;95418.75;6063924;28;110003;-64
2023/08/22 09:12:10;;;;;;;12.27;11.07;;;;;;;27.88;45.11;95412.91;6064094;28;109959;-64
2023/08/22 09:15:19;;;;;;;12.03;10.93;;;;;;;27.87;45.00;95415.94;6053236;28;110285;-63
2023/08/22 09:18:23;;;;;;;11.70;10.50;;;;;;;27.87;44.17;95407.84;6063971;28;109950;-64
2023/08/22 09:21:26;;;;;;;11.60;10.60;;;;;;;27.88;43.43;95409.44;6063916;28;110842;-63
2023/08/22 09:24:31;;;;;;;11.50;10.50;;;;;;;27.89;43.56;95411.00;6064042;28;109911;-63
2023/08/22 09:27:36;;;;;;;11.40;10.40;;;;;;;27.90;43.14;95408.00;6053064;28;109342;-63
2023/08/22 09:30:47;;;;;;;10.50;9.70;;;;;;;27.90;43.27;95394.56;6063709;28;110165;-63
2023/08/22 09:33:52;;;;;;;10.73;9.73;;;;;;;27.90;43.36;95397.25;6064082;28;109855;-64
2023/08/22 09:36:55;;;;;;;11.10;10.10;;;;;;;27.92;42.96;95389.63;6057012;28;110886;-63
2023/08/22 09:39:58;;;;;;;10.90;9.90;;;;;;;28.01;42.46;95389.50;6061259;28;110328;-62
2023/08/22 09:43:02;;;;;;;10.30;9.20;;;;;;;28.22;42.63;95382.09;6063080;28;109964;-62
2023/08/22 09:46:05;;;;;;;12.40;9.75;;;;;;;28.34;42.53;95378.63;6062543;28;109947;-62
2023/08/22 09:49:15;;;;;;;10.55;9.60;;;;;;;28.56;41.67;95372.81;6052518;28;109891;-63
2023/08/22 09:52:18;;;;;;;9.98;9.18;;;;;;;28.44;41.72;95372.78;6063588;28;110085;-62
2023/08/22 09:55:22;;;;;;;10.20;9.40;;;;;;;28.32;42.57;95362.03;6063175;28;109933;-62
2023/08/22 09:58:29;;;;;;;9.40;8.40;;;;;;;28.39;42.45;95367.63;6062212;28;109505;-62
2023/08/22 10:01:34;;;;;;;9.73;8.98;;;;;;;28.78;40.84;95366.13;6052078;28;110818;-62
2023/08/22 10:04:40;;;;;;;9.20;8.40;;;;;;;28.90;39.44;95358.03;6062772;28;109830;-63
2023/08/22 10:07:43;;;;;;;9.80;8.87;;;;;;;28.63;40.92;95358.75;6062835;28;110214;-63
2023/08/22 10:10:48;;;;;;;8.88;8.10;;;;;;;28.67;40.83;95353.47;6057405;28;109857;-63
2023/08/22 10:13:53;;;;;;;9.88;8.95;;;;;;;28.67;40.11;95350.78;6057558;28;110771;-63
2023/08/22 10:16:57;;;;;;;8.90;8.20;;;;;;;28.64;40.27;95344.16;6062878;28;110159;-63
2023/08/22 10:20:06;;;;;;;8.95;8.15;;;;;;;28.78;40.16;95343.78;6062964;28;110267;-63
2023/08/22 10:23:09;;;;;;;9.10;8.40;;;;;;;28.86;40.21;95346.34;6051699;28;110207;-64
2023/08/22 10:26:14;;;;;;;9.00;8.20;;;;;;;29.04;38.89;95340.66;6062363;28;109849;-63
2023/08/22 10:29:18;;;;;;;8.77;8.07;;;;;;;29.13;39.55;95339.41;6061895;28;110155;-63
2023/08/22 10:32:24;;;;;;;9.80;8.80;;;;;;;28.99;39.19;95333.59;6062665;28;109815;-63
2023/08/22 10:35:29;;;;;;;8.90;8.00;;;;;;;28.83;40.25;95332.78;6052218;28;109956;-63
2023/08/22 10:38:55;;;;;;;9.67;8.83;;;;;;;28.73;40.25;95323.28;6062355;28;109875;-65
2023/08/22 10:42:01;;;;;;;9.60;8.80;;;;;;;28.64;40.80;95320.72;6062480;28;110381;-63
2023/08/22 10:45:16;;;;;;;10.07;9.17;;;;;;;28.70;40.29;95328.53;6054289;28;109828;-67
2023/08/22 10:48:22;;;;;;;9.67;8.87;;;;;;;28.80;39.16;95320.78;6062241;28;110119;-63
2023/08/22 10:51:44;;;;;;;9.50;8.80;;;;;;;28.74;40.39;95310.59;6062613;28;110899;-62
2023/08/22 10:55:06;;;;;;;9.95;9.15;;;;;;;28.76;39.74;95317.19;6062342;28;109891;-64
2023/08/22 10:58:43;;;;;;;9.60;8.80;;;;;;;28.64;39.79;95323.41;6054630;28;109568;-63
2023/08/22 11:01:47;;;;;;;9.43;8.63;;;;;;;28.58;40.44;95314.00;6064838;28;109954;-62
2023/08/22 11:04:52;;;;;;;10.48;9.48;;;;;;;28.62;39.80;95320.28;6066099;28;109775;-63
2023/08/22 11:07:57;;;;;;;9.90;9.05;;;;;;;28.57;39.93;95325.13;6056040;28;109803;-63
2023/08/22 11:11:02;;;;;;;9.90;9.00;;;;;;;28.55;40.53;95322.75;6065358;28;109968;-63
2023/08/22 11:14:05;;;;;;;10.10;9.20;;;;;;;28.52;40.88;95326.13;6065914;28;109790;-63
2023/08/22 11:17:08;;;;;;;10.27;8.77;;;;;;;28.57;40.43;95328.59;6065912;28;110016;-63
2023/08/22 11:20:12;;;;;;;9.80;8.80;;;;;;;28.48;40.70;95330.63;6054874;28;110176;-63
2023/08/22 11:23:17;;;;;;;9.20;8.40;;;;;;;28.43;40.76;95324.66;6065996;28;109647;-63
2023/08/22 11:26:22;;;;;;;9.95;9.05;;;;;;;28.36;41.21;95323.31;6065672;28;109852;-63
2023/08/22 11:29:26;;;;;;;8.73;8.10;;;;;;;28.36;41.44;95328.69;6065778;28;109534;-63
2023/08/22 11:32:31;;;;;;;10.15;9.25;;;;;;;28.50;39.62;95319.50;6054627;28;112135;-63
2023/08/22 11:35:34;;;;;;;10.23;8.80;;;;;;;28.44;40.54;95310.88;6066273;28;110051;-70
2023/08/22 11:38:38;;;;;;;9.98;9.18;;;;;;;28.32;40.49;95297.41;6066489;28;110811;-70
2023/08/22 11:41:41;;;;;;;10.27;9.40;;;;;;;28.35;40.71;95302.13;6060928;28;110811;-70
2023/08/22 11:44:58;;;;;;;10.32;9.43;;;;;;;28.61;39.20;95299.06;6060743;28;109910;-70
2023/08/22 11:48:02;;;;;;;11.90;10.32;;;;;;;28.80;39.19;95298.44;6066373;28;109645;-66
2023/08/22 11:51:05;;;;;;;11.07;10.07;;;;;;;28.72;39.53;95297.44;6065469;28;109716;-69
2023/08/22 11:54:10;;;;;;;9.63;8.80;;;;;;;28.82;39.80;95296.19;6055269;28;109801;-71
2023/08/22 11:57:13;;;;;;;9.90;9.10;;;;;;;28.80;39.64;95301.13;6065999;28;109789;-70
2023/08/22 12:00:16;;;;;;;9.70;9.00;;;;;;;28.65;40.05;95291.88;6065317;28;109928;-69
2023/08/22 12:03:19;;;;;;;10.70;9.60;;;;;;;28.59;40.47;95283.25;6064770;28;110053;-69
2023/08/22 12:06:22;;;;;;;11.00;10.00;;;;;;;28.55;40.62;95289.66;6056274;28;109878;-70
2023/08/22 12:09:27;;;;;;;10.20;9.40;;;;;;;28.49;40.57;95286.41;6065253;28;109921;-70
2023/08/22 12:12:30;;;;;;;10.52;9.43;;;;;;;28.48;40.63;95287.53;6065895;28;109494;-70
2023/08/22 12:15:34;;;;;;;9.75;9.05;;;;;;;28.45;40.59;95287.41;6061080;28;109786;-70
2023/08/22 12:18:39;;;;;;;9.90;9.00;;;;;;;28.49;41.12;95277.56;6059898;28;110036;-71
2023/08/22 12:21:42;;;;;;;9.50;8.65;;;;;;;28.49;40.87;95286.41;6065917;28;111522;-71
2023/08/22 12:24:49;;;;;;;9.95;9.05;;;;;;;28.55;40.52;95290.44;6065433;28;129143;-71
2023/08/22 12:27:52;;;;;;;10.30;9.30;;;;;;;28.65;40.41;95298.03;6055527;28;113023;-71
2023/08/22 12:30:56;;;;;;;10.00;9.20;;;;;;;28.62;40.28;95292.56;6065975;28;111060;-71
2023/08/22 12:34:00;;;;;;;10.10;9.30;;;;;;;28.60;40.37;95284.81;6064968;28;110867;-70
2023/08/22 12:37:03;;;;;;;9.80;9.00;;;;;;;28.58;40.68;95291.69;6065880;28;109823;-70
2023/08/22 12:40:10;;;;;;;10.20;9.20;;;;;;;28.67;40.33;95289.59;6055478;28;109987;-70
2023/08/22 12:43:13;;;;;;;10.03;9.10;;;;;;;28.74;41.56;95297.13;6065322;28;110078;-70
2023/08/22 12:46:17;;;;;;;9.90;8.90;;;;;;;28.72;41.81;95299.34;6065863;28;111556;-71
2023/08/22 12:49:21;;;;;;;12.13;9.00;;;;;;;28.63;42.12;95294.91;6064545;28;109780;-70
2023/08/22 12:52:24;;;;;;;13.50;9.70;;;;;;;28.55;42.67;95292.34;6058954;28;111036;-70
2023/08/22 12:55:28;;;;;;;10.37;9.27;;;;;;;28.49;42.38;95299.09;6065716;28;111316;-69
2023/08/22 12:58:32;;;;;;;11.43;10.32;;;;;;;28.48;42.52;95301.00;6065096;28;109605;-69
2023/08/22 13:01:35;;;;;;;14.02;11.77;;;;;;;28.42;43.22;95307.72;6054617;28;109952;-69
2023/08/22 13:04:39;;;;;;;12.20;11.10;;;;;;;28.34;42.87;95311.31;6063569;28;109719;-70
2023/08/22 13:07:43;;;;;;;12.00;11.00;;;;;;;28.29;43.17;95311.56;6065484;28;112822;-70
2023/08/22 13:10:50;;;;;;;10.80;9.80;;;;;;;28.25;43.07;95305.28;6065066;28;109783;-70
2023/08/22 13:13:53;;;;;;;10.73;9.83;;;;;;;28.23;43.43;95300.25;6054685;28;109573;-71
2023/08/22 13:16:56;;;;;;;10.40;9.40;;;;;;;28.22;43.91;95300.56;6064964;28;110051;-70
2023/08/22 13:20:00;;;;;;;10.60;9.50;;;;;;;28.20;43.70;95292.84;6063832;28;109716;-70
2023/08/22 13:23:03;;;;;;;10.77;9.77;;;;;;;28.19;43.77;95285.09;6064756;28;109912;-70
2023/08/22 13:26:09;;;;;;;10.20;9.40;;;;;;;28.17;44.15;95284.66;6055150;28;110017;-71
2023/08/22 13:29:12;;;;;;;10.27;9.38;;;;;;;28.16;44.34;95286.56;6064702;28;109538;-70
2023/08/22 13:32:16;;;;;;;10.50;9.60;;;;;;;28.16;44.30;95280.41;6062919;28;109602;-70
2023/08/22 13:35:19;;;;;;;11.00;10.10;;;;;;;28.19;44.38;95293.19;6058183;28;110305;-70
2023/08/22 13:38:22;;;;;;;9.50;8.70;;;;;;;28.17;43.17;95284.66;6060096;28;112807;-70
2023/08/22 13:41:27;;;;;;;10.10;9.20;;;;;;;28.24;42.88;95284.88;6064197;28;110069;-71
2023/08/22 13:44:30;;;;;;;10.13;9.20;;;;;;;28.25;43.45;95283.75;6064247;28;109955;-70
2023/08/22 13:47:33;;;;;;;9.88;9.00;;;;;;;28.26;43.43;95285.31;6053847;28;110001;-70
2023/08/22 13:50:37;;;;;;;10.55;9.75;;;;;;;28.29;43.86;95282.72;6063921;28;109749;-70
2023/08/22 13:53:40;;;;;;;10.35;9.35;;;;;;;28.31;43.81;95285.09;6063985;28;109927;-69
2023/08/22 13:56:44;;;;;;;10.20;9.20;;;;;;;28.38;43.42;95287.19;6063880;28;108850;-67
2023/08/22 13:59:48;;;;;;;10.32;9.52;;;;;;;28.51;42.37;95272.59;6052318;28;111435;-68